Time;durP1;ratioP1;P1;durP2;ratioP2;P2;SDS_P1;SDS_P2;PMS_P1;PMS_P2;Temp;Humidity;BMP_temperature;BMP_pressure;BME280_temperature;BME280_humidity;BME280_pressure;Samples;Min_cycle;Max_cycle;Signal;HPM_P1;HPM_P2
2023/10/17 00:04:50;;;;;;;5.27;3.60;;;;;;;5.26;52.08;99875.66;10303020;28;20234;-66
2023/10/17 00:09:54;;;;;;;5.13;3.77;;;;;;;5.71;51.23;99797.84;10302244;28;20236;-66
2023/10/17 00:19:58;;;;;;;5.90;4.10;;;;;;;6.74;50.10;99645.66;10306228;28;20240;-65
2023/10/17 00:25:09;;;;;;;5.23;3.90;;;;;;;5.47;51.52;99832.94;10297507;28;20288;-65
2023/10/17 00:30:18;;;;;;;4.10;3.70;;;;;;;6.00;51.13;99661.28;10305603;28;20256;-65
2023/10/17 00:35:20;;;;;;;5.10;4.50;;;;;;;5.62;51.81;99676.63;10301817;28;20713;-65
2023/10/17 00:40:34;;;;;;;5.10;3.60;;;;;;;5.61;50.79;99823.66;10326201;28;20679;-65
2023/10/17 00:45:36;;;;;;;3.83;3.53;;;;;;;6.06;50.58;99685.41;10299313;28;20337;-65
2023/10/17 00:50:38;;;;;;;4.73;4.17;;;;;;;6.05;49.95;99779.38;10309542;28;20230;-66
2023/10/17 00:55:49;;;;;;;4.33;3.90;;;;;;;6.11;50.59;99668.16;10307538;28;20841;-65
2023/10/17 01:00:58;;;;;;;6.23;4.90;;;;;;;5.64;51.23;99725.13;10308051;28;20300;-65
2023/10/17 01:11:20;;;;;;;4.80;4.30;;;;;;;4.56;53.42;99775.34;10308648;28;20237;-65
2023/10/17 01:16:24;;;;;;;4.50;4.03;;;;;;;6.02;51.68;99523.84;10308227;28;20260;-65
2023/10/17 01:21:26;;;;;;;4.60;4.10;;;;;;;4.96;52.14;99747.63;10302737;28;20245;-65
2023/10/17 01:26:28;;;;;;;5.20;4.70;;;;;;;4.98;51.97;99755.44;10302906;28;20264;-66
2023/10/17 01:31:37;;;;;;;5.87;5.13;;;;;;;4.32;53.86;99751.97;10301713;28;20248;-67
2023/10/17 01:36:39;;;;;;;8.63;5.63;;;;;;;4.42;54.02;99701.59;10298669;28;20341;-65
2023/10/17 01:41:47;;;;;;;4.57;4.10;;;;;;;4.54;54.25;99639.47;10295375;28;20293;-65
2023/10/17 01:46:49;;;;;;;5.93;4.43;;;;;;;4.46;52.51;99819.56;10300568;28;20262;-65
2023/10/17 01:51:51;;;;;;;6.30;4.23;;;;;;;4.15;54.48;99689.94;10295379;28;20317;-66
2023/10/17 01:56:58;;;;;;;5.87;4.97;;;;;;;3.75;54.74;99781.00;10292373;28;20233;-68
2023/10/17 02:02:03;;;;;;;6.13;3.97;;;;;;;4.79;53.49;99574.28;10298707;28;20767;-66
2023/10/17 02:07:06;;;;;;;5.57;4.63;;;;;;;3.65;54.38;99810.97;10295237;28;20655;-65
2023/10/17 02:12:08;;;;;;;4.57;4.17;;;;;;;4.38;53.37;99701.88;10295313;28;20318;-66
2023/10/17 02:17:15;;;;;;;4.80;4.30;;;;;;;4.24;54.41;99651.16;10294334;28;20336;-65
2023/10/17 02:22:16;;;;;;;4.40;4.00;;;;;;;4.74;53.16;99595.97;10295908;28;20237;-65
2023/10/17 02:27:21;;;;;;;5.70;4.27;;;;;;;4.96;52.71;99585.88;10292674;28;20316;-65
2023/10/17 02:32:23;;;;;;;5.30;4.27;;;;;;;3.98;54.06;99724.13;10291193;28;20238;-65
2023/10/17 02:37:29;;;;;;;4.60;4.20;;;;;;;4.80;52.28;99686.47;10296178;28;20400;-65
2023/10/17 02:42:31;;;;;;;6.27;4.13;;;;;;;5.20;52.09;99598.50;10292396;28;20238;-64
2023/10/17 02:47:34;;;;;;;4.73;4.00;;;;;;;4.80;52.01;99718.28;10290609;28;20780;-66
2023/10/17 02:52:36;;;;;;;4.07;3.70;;;;;;;5.38;50.94;99678.06;10288871;28;20336;-66
2023/10/17 02:57:38;;;;;;;4.70;4.00;;;;;;;5.93;50.67;99577.94;10291712;28;20311;-65
2023/10/17 03:02:40;;;;;;;4.23;3.83;;;;;;;4.28;53.78;99701.06;10289048;28;20230;-65
2023/10/17 03:07:42;;;;;;;4.70;4.20;;;;;;;4.93;53.17;99573.75;10290180;28;20234;-65
2023/10/17 03:12:54;;;;;;;4.77;3.97;;;;;;;3.93;54.01;99778.50;10288435;28;20229;-65
2023/10/17 03:18:00;;;;;;;4.37;3.97;;;;;;;4.70;53.35;99594.56;10292630;28;20258;-65
2023/10/17 03:23:06;;;;;;;7.17;5.00;;;;;;;4.43;52.72;99711.22;10303627;28;20234;-65
2023/10/17 03:28:13;;;;;;;5.20;3.73;;;;;;;3.69;53.94;99800.94;10290039;28;20732;-64
2023/10/17 03:33:25;;;;;;;4.97;4.47;;;;;;;4.12;54.12;99654.00;10285927;28;20270;-65
2023/10/17 03:38:31;;;;;;;4.90;4.40;;;;;;;4.29;53.39;99660.34;10309668;28;20651;-65
2023/10/17 03:43:38;;;;;;;4.60;4.20;;;;;;;3.88;54.28;99704.78;10295780;28;20258;-65
2023/10/17 03:48:49;;;;;;;5.57;4.20;;;;;;;4.39;53.12;99660.34;10290802;28;20241;-65
2023/10/17 03:53:53;;;;;;;6.30;4.73;;;;;;;5.13;52.38;99552.34;10295120;28;20231;-65
2023/10/17 03:58:57;;;;;;;6.00;5.03;;;;;;;4.06;53.35;99786.16;10288678;28;20248;-66
2023/10/17 04:04:01;;;;;;;6.63;4.60;;;;;;;3.77;54.64;99736.72;10286899;28;20325;-65
2023/10/17 04:09:27;;;;;;;5.57;4.73;;;;;;;3.78;54.89;99669.56;10291819;28;20775;-65
2023/10/17 04:14:50;;;;;;;5.77;4.80;;;;;;;3.78;54.80;99673.06;10292663;28;20701;-66
2023/10/17 04:19:58;;;;;;;5.80;4.70;;;;;;;4.73;52.58;99590.81;10295259;28;20447;-65
2023/10/17 04:25:17;;;;;;;5.83;4.60;;;;;;;4.94;52.13;99586.00;10295819;28;20239;-66
2023/10/17 04:30:22;;;;;;;5.73;4.90;;;;;;;3.57;55.07;99718.22;10292750;28;20713;-66
2023/10/17 04:35:24;;;;;;;6.67;4.50;;;;;;;3.49;54.41;99759.56;10292358;28;20294;-65
2023/10/17 04:40:37;;;;;;;5.90;4.60;;;;;;;4.43;53.56;99533.69;10295551;28;20230;-65
2023/10/17 04:45:44;;;;;;;6.27;4.50;;;;;;;3.97;54.07;99672.16;10294065;28;20229;-64
2023/10/17 04:50:56;;;;;;;7.37;5.17;;;;;;;3.24;55.84;99714.16;10291469;28;20309;-66
2023/10/17 04:56:15;;;;;;;5.63;5.10;;;;;;;3.21;55.95;99693.28;10291971;28;20736;-65
2023/10/17 05:01:39;;;;;;;6.23;5.30;;;;;;;2.95;56.52;99716.78;10313334;28;20238;-64
2023/10/17 06:16:52;;;;;;;11.30;4.90;;;;;;;3.26;57.03;99654.88;10294182;28;20780;-64
2023/10/17 06:37:30;;;;;;;5.23;4.60;;;;;;;4.17;55.69;99584.69;10290678;28;20678;-64
2023/10/17 06:42:38;;;;;;;6.07;4.40;;;;;;;4.23;56.19;99549.69;10296891;28;20716;-65
2023/10/17 06:47:47;;;;;;;4.97;4.47;;;;;;;4.05;56.87;99559.38;10290955;28;20292;-65
2023/10/17 06:57:57;;;;;;;8.07;4.20;;;;;;;4.06;55.82;99717.31;10292538;28;20233;-63
2023/10/17 07:02:59;;;;;;;5.17;4.53;;;;;;;4.14;56.12;99688.28;10289862;28;20618;-64
2023/10/17 07:08:01;;;;;;;8.40;4.73;;;;;;;4.45;55.82;99603.25;10286712;28;20321;-64
2023/10/17 07:13:41;;;;;;;6.13;4.97;;;;;;;4.13;55.76;99707.81;10297927;28;20225;-64
2023/10/17 07:18:47;;;;;;;6.27;5.17;;;;;;;3.05;58.01;99860.41;10290417;28;20252;-65
2023/10/17 07:23:54;;;;;;;6.30;5.10;;;;;;;5.44;54.76;99507.63;10293370;28;20561;-64
2023/10/17 07:28:56;;;;;;;7.67;5.40;;;;;;;3.77;56.19;99835.50;10292301;28;20776;-64
2023/10/17 07:39:23;;;;;;;6.43;5.40;;;;;;;4.61;55.42;99698.00;10293472;28;20720;-65
2023/10/17 07:44:26;;;;;;;5.27;4.77;;;;;;;5.05;55.20;99565.56;10299619;28;20246;-64
2023/10/17 07:49:29;;;;;;;6.40;4.63;;;;;;;3.81;55.99;99826.28;10299753;28;20235;-64
2023/10/17 07:54:31;;;;;;;6.60;4.93;;;;;;;5.68;53.66;99617.63;10306233;28;20320;-64
2023/10/17 07:59:32;;;;;;;9.50;4.80;;;;;;;4.56;54.97;99796.53;10301125;28;20233;-64
2023/10/17 08:04:36;;;;;;;6.10;4.83;;;;;;;4.83;53.99;99834.63;10304005;28;20337;-66
2023/10/17 08:09:41;;;;;;;5.93;5.13;;;;;;;4.62;54.17;99880.75;10303238;28;20249;-64
2023/10/17 08:14:44;;;;;;;6.93;4.83;;;;;;;4.80;54.13;99850.88;10305781;28;20288;-67
2023/10/17 08:25:14;;;;;;;6.07;4.70;;;;;;;5.57;53.42;99790.38;10302083;28;20296;-63
2023/10/17 08:30:23;;;;;;;5.47;4.50;;;;;;;5.75;52.70;99803.69;10307229;28;20249;-65
2023/10/17 08:35:53;;;;;;;5.97;4.80;;;;;;;6.22;51.76;99840.59;10308634;28;20233;-63
2023/10/17 08:40:55;;;;;;;9.30;5.43;;;;;;;6.13;52.61;99767.97;10302860;28;20249;-64
2023/10/17 08:45:58;;;;;;;8.00;5.57;;;;;;;5.58;52.98;99938.88;10302359;28;20619;-64
2023/10/17 08:51:00;;;;;;;6.37;5.70;;;;;;;6.93;51.45;99786.38;10300689;28;20325;-64
2023/10/17 08:56:07;;;;;;;7.10;4.70;;;;;;;6.16;51.88;99940.38;10302971;28;20234;-64
2023/10/17 09:01:13;;;;;;;5.67;4.67;;;;;;;7.61;49.98;99824.50;10302372;28;22358;-64
2023/10/17 09:06:37;;;;;;;59.43;53.17;;;;;;;7.25;50.50;99885.94;10297528;28;20245;-64
2023/10/17 09:12:01;;;;;;;13.03;9.33;;;;;;;6.38;51.36;99980.75;10300966;28;20225;-64
2023/10/17 09:17:16;;;;;;;6.10;5.10;;;;;;;7.87;49.25;99813.72;10295741;28;20245;-64
2023/10/17 09:22:20;;;;;;;9.83;7.17;;;;;;;6.32;51.83;99941.53;10301269;28;20234;-65
2023/10/17 09:27:22;;;;;;;7.87;5.53;;;;;;;7.69;50.30;99789.03;10296178;28;20239;-64
2023/10/17 09:32:35;;;;;;;8.20;5.10;;;;;;;7.23;50.56;99868.50;10302902;28;20725;-64
2023/10/17 09:37:39;;;;;;;7.87;6.03;;;;;;;6.20;51.89;99994.88;10294296;28;20234;-64
2023/10/17 09:42:44;;;;;;;11.43;7.23;;;;;;;7.83;49.07;99982.03;10298427;28;20222;-64
2023/10/17 09:47:51;;;;;;;5.47;4.63;;;;;;;8.38;48.81;99885.53;10294529;28;20240;-64
2023/10/17 09:52:54;;;;;;;7.97;5.50;;;;;;;7.60;49.71;99963.16;10298034;28;20317;-64
2023/10/17 09:58:03;;;;;;;6.23;4.60;;;;;;;7.72;50.66;99852.66;10297435;28;20534;-64
2023/10/17 10:03:06;;;;;;;19.20;10.03;;;;;;;7.99;49.16;99984.78;10298478;28;20733;-65
2023/10/17 10:08:32;;;;;;;7.73;5.30;;;;;;;8.39;48.47;99907.72;10292752;28;20230;-64
2023/10/17 10:14:04;;;;;;;6.90;4.87;;;;;;;9.05;47.90;99819.56;10296002;28;22633;-64
2023/10/17 10:19:06;;;;;;;5.53;4.60;;;;;;;8.26;48.31;99977.50;10296450;28;20238;-64
2023/10/17 10:24:17;;;;;;;5.77;4.63;;;;;;;7.05;50.26;100028.22;10296879;28;20325;-64
2023/10/17 10:29:23;;;;;;;6.10;4.50;;;;;;;7.38;50.49;99988.53;10298368;28;20296;-64
2023/10/17 10:34:26;;;;;;;7.57;4.60;;;;;;;7.76;49.71;99959.69;10293156;28;20266;-63
2023/10/17 10:39:27;;;;;;;7.20;4.90;;;;;;;9.39;47.35;99902.00;10296953;28;20257;-64
2023/10/17 10:44:39;;;;;;;5.40;4.57;;;;;;;8.72;47.69;100039.22;10295572;28;20229;-64
2023/10/17 10:49:41;;;;;;;7.60;4.77;;;;;;;8.35;47.90;100056.50;10280780;28;20243;-65
2023/10/17 10:54:50;;;;;;;6.30;5.20;;;;;;;8.92;47.57;100046.94;10268093;28;20310;-65
2023/10/17 10:59:52;;;;;;;6.80;5.37;;;;;;;8.76;47.62;100056.59;10297257;28;20235;-64
2023/10/17 11:06:13;;;;;;;6.87;5.00;;;;;;;9.82;46.83;99901.59;10541610;27;21457;-64
2023/10/17 11:11:16;;;;;;;6.17;5.33;;;;;;;9.53;47.02;99881.72;10488332;28;20231;-65
2023/10/17 11:16:24;;;;;;;6.97;5.30;;;;;;;9.71;47.16;99846.72;10491573;28;20376;-65
2023/10/17 11:21:28;;;;;;;7.70;5.60;;;;;;;9.36;46.69;99934.38;10491640;28;20242;-65
2023/10/17 11:26:34;;;;;;;6.67;5.17;;;;;;;9.24;47.05;99938.44;10488476;28;20475;-65
2023/10/17 11:31:36;;;;;;;10.33;6.13;;;;;;;9.48;47.07;99863.53;10492544;28;20227;-65
2023/10/17 11:36:47;;;;;;;10.03;6.00;;;;;;;9.85;46.66;99869.22;10490408;28;20748;-65
2023/10/17 11:41:54;;;;;;;7.67;5.67;;;;;;;9.11;47.75;99906.94;10496779;28;20233;-64
2023/10/17 11:47:03;;;;;;;7.40;5.60;;;;;;;8.83;47.05;100036.22;10489937;28;20243;-65
2023/10/17 11:52:10;;;;;;;6.20;5.17;;;;;;;9.08;47.36;99974.88;10490796;28;20222;-65
2023/10/17 11:57:13;;;;;;;8.97;5.60;;;;;;;8.78;48.02;99955.84;10486832;28;20238;-64
2023/10/17 12:02:16;;;;;;;7.47;5.60;;;;;;;8.89;47.60;100007.25;10491676;28;20231;-65
2023/10/17 12:07:19;;;;;;;9.17;5.57;;;;;;;10.21;46.60;99793.72;10493835;28;20717;-65
2023/10/17 12:12:22;;;;;;;8.97;5.63;;;;;;;9.71;47.55;99822.69;10489606;28;20255;-65
2023/10/17 12:17:25;;;;;;;7.50;5.20;;;;;;;10.50;46.13;99806.31;10465545;28;20230;-65
2023/10/17 12:22:27;;;;;;;7.30;5.67;;;;;;;9.91;46.90;99889.91;10460193;28;20732;-65
2023/10/17 12:27:28;;;;;;;5.53;4.93;;;;;;;10.91;45.34;99862.09;10458174;28;20606;-65
2023/10/17 12:32:31;;;;;;;7.27;5.20;;;;;;;11.40;45.40;99754.31;10458542;28;20741;-65
2023/10/17 12:37:43;;;;;;;12.10;5.83;;;;;;;11.27;45.21;99826.50;10455483;28;20595;-65
2023/10/17 12:42:49;;;;;;;6.20;5.03;;;;;;;11.68;44.83;99815.25;10458429;28;20682;-65
2023/10/17 12:47:51;;;;;;;7.87;5.37;;;;;;;11.04;45.26;99858.78;10459410;28;20238;-65
2023/10/17 12:52:53;;;;;;;6.73;5.20;;;;;;;10.80;46.05;99803.66;10461286;28;20244;-65
2023/10/17 12:57:55;;;;;;;6.53;5.20;;;;;;;10.39;46.38;99861.09;10450339;28;20627;-64
2023/10/17 13:02:57;;;;;;;5.97;5.30;;;;;;;10.54;46.25;99881.69;10464663;28;20227;-65
2023/10/17 13:07:59;;;;;;;7.27;5.30;;;;;;;10.58;46.40;99846.38;10456969;28;20611;-65
2023/10/17 13:13:00;;;;;;;9.00;5.33;;;;;;;10.81;46.51;99743.75;10460287;28;20334;-65
2023/10/17 13:18:04;;;;;;;7.40;5.70;;;;;;;10.30;47.29;99764.03;10453755;28;20230;-65
2023/10/17 13:23:05;;;;;;;7.33;5.20;;;;;;;10.30;47.63;99761.38;10464341;28;20234;-64
2023/10/17 13:28:07;;;;;;;8.00;5.37;;;;;;;9.59;48.58;99783.00;10456939;28;20616;-64
2023/10/17 13:33:09;;;;;;;7.17;5.57;;;;;;;10.87;46.57;99775.16;10459223;28;20227;-65
2023/10/17 13:38:10;;;;;;;6.83;5.47;;;;;;;10.15;47.74;99753.31;10460727;28;20651;-65
2023/10/17 13:43:13;;;;;;;7.53;5.83;;;;;;;10.62;46.66;99780.75;10463084;28;20237;-71
2023/10/17 13:48:15;;;;;;;9.13;5.60;;;;;;;10.04;47.28;99862.53;10457892;28;20223;-68
2023/10/17 13:53:16;;;;;;;6.17;4.97;;;;;;;11.23;46.04;99732.28;10458891;28;20230;-71
2023/10/17 13:58:18;;;;;;;6.87;5.37;;;;;;;11.15;46.45;99710.16;10461019;28;20231;-69
2023/10/17 14:03:23;;;;;;;8.40;5.53;;;;;;;10.16;47.07;99850.44;10460935;28;20386;-72
2023/10/17 14:08:26;;;;;;;6.87;5.50;;;;;;;9.87;47.89;99859.16;10454450;28;20651;-71
2023/10/17 14:13:28;;;;;;;6.80;5.47;;;;;;;11.09;46.97;99717.13;10456874;28;20231;-72
2023/10/17 14:18:40;;;;;;;7.03;5.60;;;;;;;10.10;48.00;99797.66;10455155;28;20242;-72
2023/10/17 14:24:06;;;;;;;9.17;5.20;;;;;;;10.32;47.82;99724.56;10411494;28;20290;-71
2023/10/17 14:29:08;;;;;;;9.93;5.90;;;;;;;10.98;47.22;99662.19;10410266;28;20748;-71
2023/10/17 14:34:10;;;;;;;6.20;5.23;;;;;;;10.76;47.45;99672.06;10412293;28;20247;-71
2023/10/17 14:39:11;;;;;;;9.70;6.27;;;;;;;10.70;46.97;99681.63;10411759;28;20231;-71
2023/10/17 14:44:13;;;;;;;6.13;5.10;;;;;;;9.58;48.99;99751.13;10416826;28;20329;-67
2023/10/17 14:49:15;;;;;;;8.07;6.20;;;;;;;10.61;48.16;99706.84;10413728;28;20318;-69
2023/10/17 14:54:17;;;;;;;7.40;6.07;;;;;;;10.08;48.54;99704.28;10412069;28;20738;-72
2023/10/17 14:59:19;;;;;;;7.80;5.57;;;;;;;10.95;47.22;99726.84;10412688;28;20232;-65
2023/10/17 15:04:20;;;;;;;8.17;6.40;;;;;;;10.62;47.92;99684.41;10420536;28;20243;-64
2023/10/17 15:09:22;;;;;;;9.53;6.03;;;;;;;10.52;48.83;99625.03;10411951;28;20231;-67
2023/10/17 15:14:24;;;;;;;8.80;5.57;;;;;;;10.65;48.30;99608.31;10413470;28;20255;-67
2023/10/17 15:19:26;;;;;;;8.70;6.23;;;;;;;10.21;48.59;99709.00;10414815;28;20318;-67
2023/10/17 15:24:29;;;;;;;9.47;5.97;;;;;;;10.39;48.55;99644.41;10401947;28;20232;-73
2023/10/17 15:29:31;;;;;;;7.67;6.27;;;;;;;10.72;48.19;99584.28;10408035;28;20738;-67
2023/10/17 15:34:33;;;;;;;9.70;5.77;;;;;;;9.74;49.73;99708.25;10410232;28;20240;-67
2023/10/17 15:39:35;;;;;;;7.53;5.83;;;;;;;10.48;49.08;99602.34;10413432;28;21106;-67
2023/10/17 15:44:36;;;;;;;10.83;6.77;;;;;;;10.00;49.23;99672.28;10410373;28;20323;-67
2023/10/17 15:49:38;;;;;;;6.73;5.73;;;;;;;9.34;50.50;99710.22;10414074;28;20775;-74
2023/10/17 15:54:41;;;;;;;9.17;5.90;;;;;;;9.78;49.47;99679.31;10426215;28;20251;-67
2023/10/17 15:59:45;;;;;;;9.47;6.00;;;;;;;8.97;51.08;99738.50;10424475;28;20608;-66
2023/10/17 16:04:48;;;;;;;8.13;5.10;;;;;;;10.37;49.75;99557.34;10422976;28;20319;-67
2023/10/17 16:09:49;;;;;;;11.40;6.47;;;;;;;8.93;50.91;99769.22;10423222;28;20228;-66
2023/10/17 16:14:51;;;;;;;10.63;6.17;;;;;;;9.44;50.68;99653.09;10423051;28;20236;-72
2023/10/17 16:19:53;;;;;;;6.77;5.23;;;;;;;9.00;52.09;99572.66;10423784;28;20282;-72
2023/10/17 16:24:55;;;;;;;7.97;5.90;;;;;;;8.84;51.75;99652.81;10415891;28;20306;-66
2023/10/17 16:29:57;;;;;;;7.47;5.87;;;;;;;8.74;52.12;99652.19;10419224;28;20339;-68
2023/10/17 16:35:00;;;;;;;6.73;5.43;;;;;;;8.94;51.96;99620.59;10418575;28;20750;-68
2023/10/17 16:40:03;;;;;;;8.67;6.13;;;;;;;8.10;52.73;99767.78;10419962;28;20239;-68
2023/10/17 16:45:06;;;;;;;10.13;6.47;;;;;;;9.01;51.38;99646.41;10419894;28;20938;-67
2023/10/17 16:50:09;;;;;;;8.43;5.80;;;;;;;8.28;52.85;99699.06;10419067;28;20327;-67
2023/10/17 16:55:13;;;;;;;10.37;5.73;;;;;;;8.88;52.02;99608.78;10420244;28;20234;-68
2023/10/17 17:00:16;;;;;;;9.57;6.20;;;;;;;7.67;53.88;99738.59;10423894;28;20367;-68
2023/10/17 17:05:18;;;;;;;9.07;5.70;;;;;;;8.29;52.47;99698.06;10420369;28;20719;-65
2023/10/17 17:10:20;;;;;;;8.17;5.07;;;;;;;7.52;53.80;99764.22;10416688;28;20228;-65
2023/10/17 17:15:22;;;;;;;8.50;5.47;;;;;;;8.34;53.23;99582.91;10425843;28;20730;-65
2023/10/17 17:20:23;;;;;;;5.83;4.87;;;;;;;7.66;54.17;99689.00;10422711;28;20333;-66
2023/10/17 17:25:26;;;;;;;6.17;4.60;;;;;;;8.21;53.52;99571.97;10419042;28;20228;-69
2023/10/17 17:30:29;;;;;;;7.73;4.40;;;;;;;7.56;54.96;99611.13;10421307;28;20232;-67
2023/10/17 17:35:31;;;;;;;5.63;4.53;;;;;;;6.90;55.04;99759.25;10424936;28;20243;-66
2023/10/17 17:40:34;;;;;;;5.30;4.23;;;;;;;7.15;55.29;99645.72;10421614;28;20638;-66
2023/10/17 17:45:37;;;;;;;9.10;5.23;;;;;;;7.21;54.86;99649.56;10422846;28;22723;-66
2023/10/17 17:50:39;;;;;;;6.87;4.37;;;;;;;6.88;55.45;99687.59;10417698;28;20228;-67
2023/10/17 17:55:40;;;;;;;6.80;4.40;;;;;;;8.03;53.96;99492.28;10415029;28;20257;-67
2023/10/17 18:00:42;;;;;;;4.80;4.27;;;;;;;7.08;55.15;99629.59;10415182;28;20681;-68
2023/10/17 18:05:45;;;;;;;6.10;4.40;;;;;;;6.76;55.49;99667.63;10419381;28;20278;-70
2023/10/17 18:10:49;;;;;;;6.40;4.13;;;;;;;8.02;53.98;99461.31;10420931;28;20625;-66
2023/10/17 18:15:53;;;;;;;4.70;3.87;;;;;;;7.46;54.30;99578.50;10424028;28;20242;-67
2023/10/17 18:21:08;;;;;;;4.73;3.90;;;;;;;6.76;55.91;99609.09;10412716;28;20258;-66
2023/10/17 18:26:15;;;;;;;4.30;3.80;;;;;;;7.59;55.29;99443.00;10413559;28;20231;-67
2023/10/17 18:31:17;;;;;;;7.33;4.40;;;;;;;6.69;55.48;99661.25;10420552;28;20241;-66
2023/10/17 18:36:19;;;;;;;5.07;4.10;;;;;;;7.84;54.21;99442.91;10423579;28;21415;-67
2023/10/17 18:41:20;;;;;;;5.03;4.40;;;;;;;6.66;55.71;99617.19;10420992;28;20401;-66
2023/10/17 18:46:23;;;;;;;6.13;3.93;;;;;;;8.09;53.64;99411.63;10410830;28;20317;-67
2023/10/17 18:51:25;;;;;;;6.13;4.13;;;;;;;6.98;55.53;99543.78;10419306;28;20259;-67
2023/10/17 18:56:27;;;;;;;5.83;4.40;;;;;;;7.46;54.62;99464.00;10412331;28;20242;-67
2023/10/17 19:01:28;;;;;;;6.37;4.37;;;;;;;6.33;56.71;99587.03;10416799;28;20322;-67
2023/10/17 19:06:30;;;;;;;5.07;3.90;;;;;;;7.04;54.94;99528.97;10413345;28;20241;-70
2023/10/17 19:11:32;;;;;;;6.30;4.23;;;;;;;7.33;55.21;99424.66;10417213;28;20232;-72
2023/10/17 19:16:34;;;;;;;8.23;4.43;;;;;;;7.51;54.41;99446.53;10410978;28;20419;-66
2023/10/17 19:21:39;;;;;;;4.83;4.23;;;;;;;7.83;53.37;99449.22;10418835;28;20228;-71
2023/10/17 19:26:40;;;;;;;6.90;4.30;;;;;;;7.81;53.86;99420.09;10414084;28;20304;-67
2023/10/17 19:31:46;;;;;;;5.57;4.20;;;;;;;6.86;54.34;99633.72;10419012;28;20236;-67
2023/10/17 19:36:50;;;;;;;4.50;4.10;;;;;;;6.63;55.31;99601.56;10420938;28;21070;-67
2023/10/17 19:41:51;;;;;;;4.40;4.00;;;;;;;7.47;54.51;99441.72;10421953;28;20726;-71
2023/10/17 19:46:53;;;;;;;4.93;3.97;;;;;;;6.90;55.66;99477.28;10418378;28;20240;-72
2023/10/17 19:51:55;;;;;;;8.00;4.37;;;;;;;6.46;55.49;99607.84;10422221;28;20707;-73
2023/10/17 19:56:57;;;;;;;7.80;4.57;;;;;;;6.61;55.36;99575.13;10422144;28;20271;-73
2023/10/17 20:02:00;;;;;;;4.97;4.20;;;;;;;6.67;55.12;99530.28;10422599;28;20247;-72
2023/10/17 20:07:01;;;;;;;7.17;4.30;;;;;;;6.81;54.44;99590.84;10419346;28;20244;-73
2023/10/17 20:12:05;;;;;;;5.53;4.53;;;;;;;7.29;54.51;99441.94;10428218;28;20326;-71
2023/10/17 20:17:07;;;;;;;5.43;4.03;;;;;;;8.07;52.99;99401.16;10415152;28;20375;-71
2023/10/17 20:22:10;;;;;;;5.53;4.73;;;;;;;6.37;55.84;99559.97;10419941;28;20226;-70
2023/10/17 20:27:12;;;;;;;4.50;4.10;;;;;;;7.09;54.87;99453.00;10403356;28;20228;-70
2023/10/17 20:32:17;;;;;;;6.83;4.43;;;;;;;6.17;55.70;99641.78;10415502;28;20670;-68
2023/10/17 20:37:18;;;;;;;5.57;4.27;;;;;;;6.76;55.06;99535.47;10411191;28;20884;-68
2023/10/17 20:42:20;;;;;;;5.07;4.37;;;;;;;6.72;54.74;99584.66;10419182;28;20264;-69
2023/10/17 20:47:22;;;;;;;7.67;4.60;;;;;;;7.83;52.93;99444.75;10417096;28;20243;-68
2023/10/17 20:52:23;;;;;;;4.63;4.10;;;;;;;8.09;52.75;99406.31;10424228;28;20327;-68
2023/10/17 20:57:25;;;;;;;7.17;5.10;;;;;;;6.38;55.36;99585.56;10414897;28;20311;-68
2023/10/17 21:02:29;;;;;;;5.70;4.73;;;;;;;6.81;54.69;99546.44;10414744;28;20243;-68
2023/10/17 21:07:31;;;;;;;6.13;4.63;;;;;;;6.47;54.98;99605.03;10419734;28;20300;-68
2023/10/17 21:12:33;;;;;;;5.77;4.60;;;;;;;7.34;53.63;99480.38;10421434;28;20237;-68
2023/10/17 21:17:35;;;;;;;7.93;5.10;;;;;;;6.28;55.73;99566.28;10414523;28;20263;-68
2023/10/17 21:22:37;;;;;;;5.63;4.43;;;;;;;7.03;53.89;99509.53;10417195;28;20614;-68
2023/10/17 21:27:38;;;;;;;5.60;4.97;;;;;;;6.07;55.83;99593.25;10415399;28;20232;-68
2023/10/17 21:32:42;;;;;;;7.17;4.40;;;;;;;6.87;54.82;99451.88;10419834;28;20229;-68
2023/10/17 21:37:45;;;;;;;5.67;4.33;;;;;;;6.41;55.39;99532.09;10414789;28;20245;-67
2023/10/17 21:42:50;;;;;;;6.10;4.70;;;;;;;6.56;55.86;99449.84;10422315;28;20616;-68
2023/10/17 21:47:53;;;;;;;5.63;4.50;;;;;;;6.35;54.67;99606.31;10409139;28;20631;-68
2023/10/17 21:52:55;;;;;;;7.27;4.60;;;;;;;6.99;54.24;99455.00;10413324;28;20232;-68
2023/10/17 21:57:57;;;;;;;6.47;4.97;;;;;;;5.45;57.44;99593.38;10414519;28;20230;-68
2023/10/17 22:02:59;;;;;;;5.83;4.97;;;;;;;6.62;56.18;99350.00;10415493;28;20293;-68
2023/10/17 22:08:00;;;;;;;5.23;4.50;;;;;;;5.71;57.23;99512.94;10410050;28;20356;-67
2023/10/17 22:13:05;;;;;;;5.27;4.60;;;;;;;6.29;56.04;99395.19;10416569;28;20240;-67
2023/10/17 22:18:09;;;;;;;5.30;4.13;;;;;;;6.01;57.01;99403.47;10411725;28;20248;-67
2023/10/17 22:23:11;;;;;;;6.20;4.97;;;;;;;5.60;57.19;99479.53;10408393;28;20628;-67
2023/10/17 22:28:13;;;;;;;6.57;4.87;;;;;;;6.04;56.63;99376.59;10408765;28;20234;-67
2023/10/17 22:33:14;;;;;;;5.10;4.57;;;;;;;5.47;56.99;99499.34;10390871;28;20608;-67
2023/10/17 22:38:16;;;;;;;6.37;4.17;;;;;;;6.81;55.16;99317.72;10407944;28;20224;-68
2023/10/17 22:43:18;;;;;;;6.93;5.20;;;;;;;6.00;55.85;99395.66;10412243;28;20239;-68
2023/10/17 22:48:21;;;;;;;5.87;4.60;;;;;;;5.19;57.27;99529.69;10404283;28;20244;-67
2023/10/17 22:53:22;;;;;;;6.63;5.10;;;;;;;5.31;56.84;99533.75;10405835;28;20313;-68
2023/10/17 22:58:24;;;;;;;7.50;5.10;;;;;;;5.17;57.29;99532.50;10410481;28;20420;-67
2023/10/17 23:03:26;;;;;;;5.37;4.87;;;;;;;5.50;56.88;99459.22;10408436;28;20228;-67
2023/10/17 23:08:28;;;;;;;5.33;4.70;;;;;;;6.08;55.78;99377.09;10409232;28;20239;-67
2023/10/17 23:13:29;;;;;;;8.90;6.00;;;;;;;6.07;56.06;99364.78;10410922;28;20303;-68
2023/10/17 23:18:34;;;;;;;6.50;5.30;;;;;;;5.69;56.10;99482.06;10394990;28;20793;-67
2023/10/17 23:23:36;;;;;;;6.10;5.27;;;;;;;5.01;57.72;99511.97;10404998;28;20235;-67
2023/10/17 23:28:38;;;;;;;6.07;5.37;;;;;;;5.49;56.22;99481.44;10489608;28;20234;-68
2023/10/17 23:33:39;;;;;;;8.13;5.20;;;;;;;5.50;56.24;99485.78;10469903;28;20313;-68
2023/10/17 23:38:41;;;;;;;6.30;5.00;;;;;;;5.23;57.41;99449.63;10490632;28;20691;-67
2023/10/17 23:43:43;;;;;;;6.70;5.20;;;;;;;5.91;55.75;99397.50;10462683;28;20226;-66
2023/10/17 23:48:45;;;;;;;6.73;5.30;;;;;;;5.52;56.53;99428.03;10476687;28;20304;-67
2023/10/17 23:53:46;;;;;;;7.27;6.33;;;;;;;5.43;56.63;99431.63;10455304;28;20224;-67
2023/10/17 23:58:48;;;;;;;7.73;6.30;;;;;;;5.47;56.63;99422.38;10495459;28;20242;-67
